Time;durP1;ratioP1;P1;durP2;ratioP2;P2;SDS_P1;SDS_P2;PMS_P1;PMS_P2;Temp;Humidity;BMP_temperature;BMP_pressure;BME280_temperature;BME280_humidity;BME280_pressure;Samples;Min_cycle;Max_cycle;Signal;HPM_P1;HPM_P2
2022/06/13 00:01:13;;;;;;;0.40;0.10;;;;;;;20.52;53.47;100305.84;103229;1284;138331;-69
2022/06/13 00:03:40;;;;;;;0.40;0.10;;;;;;;20.52;53.82;100302.96;103522;1284;108371;-70
2022/06/13 00:06:07;;;;;;;0.40;0.10;;;;;;;20.52;54.09;100298.83;103376;1284;138460;-70
2022/06/13 00:08:35;;;;;;;0.40;0.10;;;;;;;20.52;53.78;100299.30;103478;1284;95053;-69
2022/06/13 00:11:02;;;;;;;0.40;0.10;;;;;;;20.51;54.14;100295.23;103482;1284;141428;-70
2022/06/13 00:13:29;;;;;;;0.40;0.10;;;;;;;20.48;54.39;100290.27;103441;1284;95002;-70
2022/06/13 00:15:56;;;;;;;0.40;0.10;;;;;;;20.45;54.50;100283.58;103512;1284;94525;-70
2022/06/13 00:18:24;;;;;;;0.40;0.10;;;;;;;20.48;54.31;100281.98;103409;1284;138914;-68
2022/06/13 00:20:52;;;;;;;0.40;0.10;;;;;;;20.52;54.45;100280.79;102922;1284;94456;-67
2022/06/13 00:23:19;;;;;;;0.40;0.10;;;;;;;20.54;54.48;100279.41;102895;1284;138577;-69
2022/06/13 00:25:46;;;;;;;0.40;0.10;;;;;;;20.56;54.48;100279.96;102970;1284;94692;-69
2022/06/13 00:28:12;;;;;;;0.40;0.10;;;;;;;20.62;54.30;100286.02;102903;1284;94360;-70
2022/06/13 00:30:39;;;;;;;0.40;0.10;;;;;;;20.65;54.13;100299.55;102988;1284;138008;-69
2022/06/13 00:33:06;;;;;;;0.40;0.10;;;;;;;20.55;54.20;100308.73;102972;1284;94677;-71
2022/06/13 00:35:33;;;;;;;0.40;0.10;;;;;;;20.47;53.73;100323.70;103357;1284;138463;-70
2022/06/13 00:37:59;;;;;;;0.40;0.10;;;;;;;20.37;53.67;100348.48;103513;1284;94581;-70
2022/06/13 00:40:26;;;;;;;0.40;0.10;;;;;;;20.32;53.90;100385.69;103588;1284;94450;-69
2022/06/13 00:42:52;;;;;;;0.40;0.10;;;;;;;20.30;54.01;100396.77;103375;1284;137995;-70
2022/06/13 00:45:23;;;;;;;0.40;0.10;;;;;;;20.34;54.50;100409.85;103532;1284;95925;-69
2022/06/13 00:47:53;;;;;;;0.40;0.10;;;;;;;20.28;57.54;100424.89;103010;1284;138445;-72
2022/06/13 00:50:33;;;;;;;0.40;0.10;;;;;;;20.12;60.65;100432.10;103487;1284;99484;-74
2022/06/13 00:53:07;;;;;;;0.40;0.10;;;;;;;20.01;61.75;100432.24;103529;1284;107850;-73
2022/06/13 00:55:39;;;;;;;0.40;0.10;;;;;;;19.99;62.72;100420.09;103474;1284;94329;-74
2022/06/13 00:58:07;;;;;;;0.40;0.10;;;;;;;20.06;63.15;100412.64;103571;1284;94425;-74
2022/06/13 01:00:35;;;;;;;0.40;0.10;;;;;;;20.12;63.00;100415.27;103454;1284;139325;-74
2022/06/13 01:03:04;;;;;;;0.40;0.10;;;;;;;20.14;63.26;100405.98;103634;1284;99545;-73
2022/06/13 01:05:39;;;;;;;0.40;0.10;;;;;;;20.11;63.79;100391.00;103421;1284;140593;-75
2022/06/13 01:08:09;;;;;;;0.40;0.10;;;;;;;20.14;64.44;100374.60;103487;1284;94368;-73
2022/06/13 01:13:35;;;;;;;0.40;0.10;;;;;;;20.27;63.94;100363.80;103435;1284;137781;-75
2022/06/13 01:16:12;;;;;;;0.40;0.10;;;;;;;20.32;64.08;100360.05;103557;1284;99485;-74
2022/06/13 01:18:48;;;;;;;0.40;0.10;;;;;;;20.35;63.47;100347.58;103333;1284;139264;-75
2022/06/13 01:21:27;;;;;;;0.40;0.10;;;;;;;20.38;63.34;100337.48;103439;1284;95577;-74
2022/06/13 01:24:13;;;;;;;0.40;0.10;;;;;;;20.30;63.18;100332.98;103367;1284;138683;-74
2022/06/13 01:26:39;;;;;;;0.40;0.10;;;;;;;20.26;63.70;100329.29;103418;1284;108382;-74
2022/06/13 01:29:18;;;;;;;0.40;0.10;;;;;;;20.16;63.64;100328.65;103344;1284;138998;-74
2022/06/13 01:32:15;;;;;;;0.40;0.10;;;;;;;20.14;63.39;100320.88;103486;1284;108941;-72
2022/06/13 01:35:12;;;;;;;0.40;0.10;;;;;;;20.16;63.42;100310.48;103493;1284;94347;-74
2022/06/13 01:37:57;;;;;;;0.40;0.10;;;;;;;20.09;63.91;100303.94;103543;1284;95851;-74
2022/06/13 01:41:04;;;;;;;0.40;0.10;;;;;;;19.99;64.29;100300.47;103466;1284;108745;-74
2022/06/13 01:43:37;;;;;;;0.40;0.10;;;;;;;19.93;64.23;100295.45;103442;1284;99515;-76
2022/06/13 01:46:26;;;;;;;0.40;0.10;;;;;;;19.89;64.50;100292.81;103519;1284;108853;-74
2022/06/13 01:49:05;;;;;;;0.40;0.10;;;;;;;19.71;65.27;100290.20;103362;1284;138731;-75
2022/06/13 01:51:37;;;;;;;0.40;0.10;;;;;;;19.62;65.70;100289.89;103490;1283;94823;-75
2022/06/13 01:54:28;;;;;;;0.40;0.10;;;;;;;19.54;65.94;100288.40;103326;1284;139184;-75
2022/06/13 01:57:06;;;;;;;0.40;0.10;;;;;;;19.49;66.07;100283.87;103467;1284;99454;-75
2022/06/13 01:59:42;;;;;;;0.40;0.10;;;;;;;19.45;66.22;100280.04;103364;1284;138445;-74
2022/06/13 02:02:25;;;;;;;0.40;0.10;;;;;;;19.35;66.47;100274.68;103461;1284;95472;-74
2022/06/13 02:05:07;;;;;;;0.40;0.10;;;;;;;19.32;66.63;100271.27;103431;1284;94798;-74
2022/06/13 02:07:39;;;;;;;0.40;0.10;;;;;;;19.34;66.68;100265.42;103564;1284;108505;-74
2022/06/13 02:10:32;;;;;;;0.40;0.10;;;;;;;19.23;67.05;100267.06;103476;1284;100106;-73
2022/06/13 02:13:07;;;;;;;0.40;0.10;;;;;;;19.19;67.15;100266.04;103462;1284;138660;-73
2022/06/13 02:15:54;;;;;;;0.40;0.10;;;;;;;19.23;67.22;100271.34;103603;1284;95045;-75
2022/06/13 02:18:28;;;;;;;0.40;0.10;;;;;;;19.31;66.98;100269.94;103427;1284;138956;-74
2022/06/13 02:21:00;;;;;;;0.40;0.10;;;;;;;19.22;67.45;100257.92;103600;1284;108378;-74
2022/06/13 02:23:30;;;;;;;0.40;0.10;;;;;;;19.08;67.62;100256.48;103480;1284;138323;-74
2022/06/13 02:26:03;;;;;;;0.40;0.10;;;;;;;19.10;67.54;100254.73;103551;1284;108759;-75
2022/06/13 02:28:39;;;;;;;0.40;0.10;;;;;;;19.25;67.00;100247.23;103568;1284;94824;-74
2022/06/13 02:31:23;;;;;;;0.40;0.10;;;;;;;19.33;66.92;100241.55;103674;1284;138710;-74
2022/06/13 02:33:56;;;;;;;0.40;0.10;;;;;;;19.26;66.96;100236.22;103690;1284;107593;-73
2022/06/13 02:36:48;;;;;;;0.40;0.10;;;;;;;19.28;67.09;100235.93;103544;1284;139045;-73
2022/06/13 02:39:40;;;;;;;0.40;0.10;;;;;;;19.19;67.22;100235.39;103819;1284;109898;-74
2022/06/13 02:42:19;;;;;;;0.40;0.10;;;;;;;19.21;67.18;100233.28;103455;1284;139301;-74
2022/06/13 02:44:53;;;;;;;0.40;0.10;;;;;;;19.30;67.07;100235.08;103767;1284;94355;-74
2022/06/13 02:47:55;;;;;;;0.40;0.10;;;;;;;19.40;66.78;100243.41;103647;1284;138516;-74
2022/06/13 02:50:50;;;;;;;0.40;0.10;;;;;;;19.49;66.55;100242.10;103372;1286;99687;-74
2022/06/13 02:53:33;;;;;;;0.40;0.10;;;;;;;19.47;66.48;100243.69;103288;1284;138935;-73
2022/06/13 02:56:10;;;;;;;0.40;0.10;;;;;;;19.36;66.41;100240.98;103700;1284;94603;-75
2022/06/13 02:59:01;;;;;;;0.40;0.10;;;;;;;19.27;67.13;100238.84;103795;1284;94349;-73
2022/06/13 03:01:37;;;;;;;0.40;0.10;;;;;;;19.15;67.55;100235.46;103774;1284;106616;-74
2022/06/13 03:04:09;;;;;;;0.40;0.10;;;;;;;19.18;67.91;100232.40;103699;1284;99468;-74
2022/06/13 03:07:00;;;;;;;0.40;0.10;;;;;;;19.23;67.91;100231.23;103603;1284;139477;-73
2022/06/13 03:09:35;;;;;;;0.40;0.10;;;;;;;19.17;67.93;100231.21;103653;1284;94434;-73
2022/06/13 03:12:16;;;;;;;0.40;0.10;;;;;;;19.29;67.76;100225.95;103617;1284;138857;-72
2022/06/13 03:14:58;;;;;;;0.40;0.10;;;;;;;19.36;67.47;100231.27;103692;1284;108507;-74
2022/06/13 03:17:39;;;;;;;0.40;0.10;;;;;;;19.44;67.30;100228.39;103641;1284;139112;-75
2022/06/13 03:20:08;;;;;;;0.40;0.10;;;;;;;19.44;67.18;100232.71;103701;1284;109433;-72
2022/06/13 03:22:47;;;;;;;0.40;0.10;;;;;;;19.42;67.43;100231.20;103691;1284;97716;-74
2022/06/13 03:25:46;;;;;;;0.40;0.10;;;;;;;19.41;68.07;100230.03;103570;1284;138895;-75
2022/06/13 03:28:42;;;;;;;0.40;0.10;;;;;;;19.46;67.80;100222.50;103721;1284;108634;-73
2022/06/13 03:31:21;;;;;;;0.40;0.10;;;;;;;19.46;68.22;100217.80;103473;1284;139771;-74
2022/06/13 03:33:53;;;;;;;0.40;0.10;;;;;;;19.49;68.03;100215.08;103552;1284;108056;-74
2022/06/13 03:36:30;;;;;;;0.40;0.10;;;;;;;19.42;67.22;100219.00;103520;1284;138896;-74
2022/06/13 03:39:17;;;;;;;0.40;0.10;;;;;;;19.35;67.91;100219.23;103538;1284;94816;-72
2022/06/13 03:42:02;;;;;;;0.40;0.10;;;;;;;19.38;66.80;100218.38;103535;1285;139457;-73
2022/06/13 03:44:34;;;;;;;0.40;0.10;;;;;;;19.27;67.29;100223.60;103553;1284;99331;-74
2022/06/13 03:47:16;;;;;;;0.40;0.10;;;;;;;19.35;67.37;100224.67;103462;1284;139064;-73
2022/06/13 03:49:56;;;;;;;0.40;0.10;;;;;;;19.14;66.95;100226.42;103589;1285;95576;-73
2022/06/13 03:52:25;;;;;;;0.40;0.10;;;;;;;19.01;67.79;100228.64;103764;1284;94275;-74
2022/06/13 03:55:04;;;;;;;0.40;0.10;;;;;;;19.09;67.72;100239.45;103841;1284;139635;-73
2022/06/13 03:57:46;;;;;;;0.40;0.10;;;;;;;19.19;67.32;100250.19;103635;1284;99427;-72
2022/06/13 04:00:24;;;;;;;0.40;0.10;;;;;;;19.16;67.61;100248.40;103518;1284;141363;-74
2022/06/13 04:02:53;;;;;;;0.40;0.10;;;;;;;19.19;67.22;100254.49;103543;1284;94733;-72
2022/06/13 04:05:34;;;;;;;0.40;0.10;;;;;;;19.24;67.18;100257.98;103439;1284;139276;-73
2022/06/13 04:08:02;;;;;;;0.40;0.10;;;;;;;19.37;67.06;100255.68;103537;1285;107520;-74
2022/06/13 04:10:36;;;;;;;0.40;0.10;;;;;;;19.50;66.78;100263.64;103683;1284;99463;-74
2022/06/13 04:13:47;;;;;;;0.40;0.10;;;;;;;19.62;66.75;100272.39;103467;1284;138097;-74
2022/06/13 04:16:20;;;;;;;0.40;0.10;;;;;;;19.85;66.42;100267.67;103072;1290;94831;-74
2022/06/13 04:19:17;;;;;;;0.40;0.10;;;;;;;19.96;65.99;100268.35;103378;1285;139147;-73
2022/06/13 04:21:56;;;;;;;0.40;0.10;;;;;;;20.07;65.62;100271.79;103464;1287;108453;-72
2022/06/13 04:24:35;;;;;;;0.40;0.10;;;;;;;20.08;65.81;100265.59;103525;1284;138055;-72
2022/06/13 04:27:08;;;;;;;0.40;0.10;;;;;;;20.07;66.10;100260.80;103538;1284;107681;-72
2022/06/13 04:29:34;;;;;;;0.40;0.10;;;;;;;20.14;65.66;100261.74;103417;1285;139163;-72
2022/06/13 04:32:07;;;;;;;0.40;0.10;;;;;;;20.20;65.89;100258.25;103698;1284;94182;-72
2022/06/13 04:34:46;;;;;;;0.40;0.10;;;;;;;20.19;65.57;100258.49;103603;1284;108326;-73
2022/06/13 04:37:15;;;;;;;0.40;0.10;;;;;;;20.18;65.69;100256.98;103493;1284;138507;-73
2022/06/13 04:39:44;;;;;;;0.40;0.10;;;;;;;20.25;65.75;100247.86;103502;1285;109545;-73
2022/06/13 04:42:14;;;;;;;0.40;0.10;;;;;;;20.35;65.49;100242.11;103490;1284;138999;-71
2022/06/13 04:44:42;;;;;;;0.40;0.10;;;;;;;20.36;65.12;100231.89;103617;1285;94978;-71
2022/06/13 04:47:14;;;;;;;0.40;0.10;;;;;;;20.40;65.55;100230.94;103410;1284;138278;-73
2022/06/13 04:49:56;;;;;;;0.40;0.10;;;;;;;20.48;65.11;100233.81;103537;1284;99703;-72
2022/06/13 04:52:28;;;;;;;0.40;0.10;;;;;;;20.65;64.51;100232.60;103513;1284;109020;-73
2022/06/13 04:55:11;;;;;;;0.40;0.10;;;;;;;20.78;64.51;100231.02;103475;1284;138238;-72
2022/06/13 04:57:37;;;;;;;0.40;0.10;;;;;;;20.77;64.84;100232.48;103670;1284;94877;-72
2022/06/13 05:00:07;;;;;;;0.40;0.10;;;;;;;20.90;64.04;100228.54;103512;1284;138741;-73
2022/06/13 05:02:53;;;;;;;0.40;0.10;;;;;;;20.93;63.95;100226.17;103637;1284;99309;-73
2022/06/13 05:05:30;;;;;;;0.40;0.10;;;;;;;20.88;64.51;100227.02;103573;1284;138728;-74
2022/06/13 05:07:57;;;;;;;0.40;0.10;;;;;;;20.87;63.98;100231.04;103596;1284;94836;-72
2022/06/13 05:10:28;;;;;;;0.40;0.10;;;;;;;20.78;64.22;100228.10;103515;1284;94793;-74
2022/06/13 05:12:56;;;;;;;0.40;0.10;;;;;;;20.67;64.73;100226.52;103440;1284;138967;-73
2022/06/13 05:15:32;;;;;;;0.40;0.10;;;;;;;20.61;65.46;100219.52;103505;1284;94871;-73
2022/06/13 05:18:10;;;;;;;0.40;0.10;;;;;;;20.61;65.78;100222.05;103893;1284;138332;-74
2022/06/13 05:20:59;;;;;;;0.40;0.10;;;;;;;20.58;65.64;100224.98;103559;1284;94764;-73
2022/06/13 05:23:40;;;;;;;0.40;0.10;;;;;;;20.55;65.48;100228.95;103504;1284;139349;-75
2022/06/13 05:26:08;;;;;;;0.40;0.10;;;;;;;20.61;65.81;100228.36;103539;1284;108926;-73
2022/06/13 05:28:36;;;;;;;0.40;0.10;;;;;;;20.63;65.90;100223.51;103652;1284;98355;-73
2022/06/13 05:31:09;;;;;;;0.40;0.10;;;;;;;20.46;66.13;100222.23;103666;1284;139324;-69
2022/06/13 05:33:40;;;;;;;0.40;0.10;;;;;;;20.33;66.09;100218.41;102873;1285;94693;-69
2022/06/13 05:36:12;;;;;;;0.40;0.10;;;;;;;20.40;66.56;100214.89;103472;1284;138724;-69
2022/06/13 05:38:45;;;;;;;0.40;0.10;;;;;;;20.58;66.39;100207.73;102632;1286;108434;-70
2022/06/13 05:41:12;;;;;;;0.40;0.10;;;;;;;20.60;65.87;100203.40;102852;1284;138567;-72
2022/06/13 05:43:39;;;;;;;0.40;0.10;;;;;;;20.56;66.38;100202.94;102847;1284;380946;-69
2022/06/13 05:46:08;;;;;;;0.40;0.10;;;;;;;20.44;66.49;100201.23;102866;1285;94792;-69
2022/06/13 05:48:35;;;;;;;0.40;0.10;;;;;;;20.34;66.81;100203.60;102838;1284;138741;-70
2022/06/13 05:51:02;;;;;;;0.40;0.10;;;;;;;20.34;66.82;100205.38;103097;1284;94342;-70
2022/06/13 05:53:29;;;;;;;0.40;0.10;;;;;;;20.29;66.86;100203.36;102952;1284;138428;-71
2022/06/13 05:55:59;;;;;;;0.40;0.10;;;;;;;20.24;67.47;100205.92;103648;1284;94850;-70
2022/06/13 05:58:26;;;;;;;0.40;0.10;;;;;;;20.31;67.14;100207.23;103654;1284;94984;-71
2022/06/13 06:00:57;;;;;;;0.40;0.10;;;;;;;20.23;67.12;100205.77;103474;1284;138798;-69
2022/06/13 06:03:25;;;;;;;0.40;0.10;;;;;;;20.33;67.45;100200.41;103506;1284;108664;-70
2022/06/13 06:05:53;;;;;;;0.40;0.10;;;;;;;20.32;67.29;100200.27;103455;1284;139003;-71
2022/06/13 06:08:21;;;;;;;0.40;0.10;;;;;;;20.40;67.33;100196.88;103662;1284;108985;-70
2022/06/13 06:10:53;;;;;;;0.40;0.10;;;;;;;20.48;66.96;100194.52;103685;1284;94804;-70
2022/06/13 06:13:19;;;;;;;0.40;0.10;;;;;;;20.51;66.80;100187.94;103629;1284;138631;-70
2022/06/13 06:15:48;;;;;;;0.40;0.10;;;;;;;20.58;67.02;100181.73;103649;1284;95211;-71
2022/06/13 06:18:16;;;;;;;0.40;0.10;;;;;;;20.62;66.94;100170.98;103592;1284;139651;-70
2022/06/13 06:20:46;;;;;;;0.40;0.10;;;;;;;20.62;66.69;100163.05;103808;1284;108922;-69
2022/06/13 06:23:13;;;;;;;0.40;0.00;;;;;;;20.62;67.04;100156.91;103300;1287;139763;-71
2022/06/13 06:25:41;;;;;;;0.40;0.10;;;;;;;20.66;67.08;100157.10;103625;1284;94397;-70
2022/06/13 06:28:13;;;;;;;0.40;0.10;;;;;;;20.75;67.18;100153.41;103739;1284;94343;-70
2022/06/13 06:30:40;;;;;;;0.40;0.10;;;;;;;20.88;66.78;100144.18;103662;1284;139466;-69
2022/06/13 06:33:07;;;;;;;0.40;0.10;;;;;;;21.04;66.28;100142.67;103770;1284;95051;-70
2022/06/13 06:35:34;;;;;;;0.40;0.10;;;;;;;21.12;65.37;100143.89;103579;1284;139239;-70
2022/06/13 06:38:06;;;;;;;0.40;0.10;;;;;;;21.21;65.01;100143.35;103732;1284;94763;-69
2022/06/13 06:40:33;;;;;;;0.40;0.10;;;;;;;21.30;65.00;100141.11;103514;1284;108521;-70
2022/06/13 06:42:59;;;;;;;0.40;0.10;;;;;;;21.31;64.46;100145.91;103280;1285;139244;-70
2022/06/13 06:45:27;;;;;;;0.40;0.10;;;;;;;21.32;64.13;100136.79;103653;1284;94863;-70
2022/06/13 06:47:55;;;;;;;0.40;0.10;;;;;;;21.44;64.62;100134.12;103567;1284;137998;-70
2022/06/13 06:50:25;;;;;;;0.40;0.10;;;;;;;21.59;64.86;100133.34;103679;1284;94891;-71
2022/06/13 06:52:53;;;;;;;0.40;0.10;;;;;;;21.70;64.21;100128.86;103864;1284;108424;-70
2022/06/13 07:00:55;;;;;;;0.40;0.00;;;;;;;21.93;63.04;100120.92;103645;1284;138771;-70
2022/06/13 07:03:22;;;;;;;0.40;0.10;;;;;;;21.96;64.17;100118.35;103675;1284;94390;-70
2022/06/13 07:05:51;;;;;;;0.40;0.10;;;;;;;22.04;63.24;100120.10;103638;1284;139716;-70
2022/06/13 07:08:18;;;;;;;0.40;0.10;;;;;;;22.14;63.21;100115.85;103656;1284;99425;-69
2022/06/13 07:10:47;;;;;;;0.40;0.00;;;;;;;22.29;62.68;100119.35;103031;1284;94822;-69
2022/06/13 07:13:16;;;;;;;0.40;0.10;;;;;;;22.43;62.35;100125.19;103554;1284;138870;-73
2022/06/13 07:15:50;;;;;;;0.40;0.00;;;;;;;22.54;62.88;100130.64;103756;1284;94762;-68
2022/06/13 07:18:17;;;;;;;0.40;0.00;;;;;;;22.54;61.75;100134.59;103595;1284;139027;-70
2022/06/13 07:20:44;;;;;;;0.40;0.00;;;;;;;22.48;60.47;100134.57;103610;1284;94397;-71
2022/06/13 07:23:11;;;;;;;0.40;0.10;;;;;;;22.46;60.48;100135.92;103555;1284;140954;-71
2022/06/13 07:25:37;;;;;;;0.40;0.00;;;;;;;22.47;59.81;100129.16;103695;1284;94712;-71
2022/06/13 07:28:04;;;;;;;0.40;0.10;;;;;;;22.49;59.92;100122.67;103652;1284;94858;-71
2022/06/13 07:30:31;;;;;;;0.40;0.10;;;;;;;22.56;60.16;100119.81;103616;1284;138696;-71
2022/06/13 07:32:59;;;;;;;0.40;0.10;;;;;;;22.71;60.05;100122.52;103990;1284;108976;-71
2022/06/13 07:35:27;;;;;;;0.40;0.10;;;;;;;22.79;58.76;100123.14;103510;1284;138605;-69
2022/06/13 07:40:40;;;;;;;0.40;0.10;;;;;;;22.63;59.22;100133.16;103652;1284;108515;-71
2022/06/13 07:43:09;;;;;;;0.40;0.10;;;;;;;22.62;59.35;100129.42;103494;1284;138918;-70
2022/06/13 07:45:40;;;;;;;0.40;0.10;;;;;;;22.63;58.72;100128.12;103683;1284;108126;-70
2022/06/13 07:48:22;;;;;;;0.40;0.10;;;;;;;22.66;59.48;100121.64;103485;1284;138780;-70
2022/06/13 07:50:49;;;;;;;0.40;0.10;;;;;;;22.71;59.97;100119.84;103679;1284;94463;-70
2022/06/13 07:53:16;;;;;;;0.40;0.00;;;;;;;22.67;58.92;100112.96;103560;1284;140742;-70
2022/06/13 07:56:03;;;;;;;0.40;0.00;;;;;;;22.65;58.35;100115.98;103568;1284;99930;-70
2022/06/13 07:58:34;;;;;;;0.40;0.00;;;;;;;22.63;57.74;100114.30;103646;1284;109007;-70
2022/06/13 08:01:01;;;;;;;0.40;0.00;;;;;;;22.62;58.35;100115.68;103487;1283;138618;-71
2022/06/13 08:03:31;;;;;;;0.40;0.10;;;;;;;22.57;58.18;100124.08;103755;1284;94842;-71
2022/06/13 08:05:58;;;;;;;0.40;0.10;;;;;;;22.55;59.06;100124.39;103467;1284;138051;-71
2022/06/13 08:08:25;;;;;;;0.40;0.10;;;;;;;22.53;58.99;100127.09;103703;1284;94416;-71
2022/06/13 08:10:54;;;;;;;0.40;0.10;;;;;;;22.44;59.23;100121.86;103607;1284;94858;-72
2022/06/13 08:13:22;;;;;;;0.40;0.00;;;;;;;22.37;59.23;100115.24;103542;1284;138361;-73
2022/06/13 08:15:50;;;;;;;0.40;0.00;;;;;;;22.32;58.70;100105.41;103516;1284;94451;-72
2022/06/13 08:18:18;;;;;;;0.40;0.10;;;;;;;22.33;58.99;100099.00;103479;1284;138413;-71
2022/06/13 08:20:50;;;;;;;0.40;0.10;;;;;;;22.46;59.31;100096.75;103597;1284;99419;-68
2022/06/13 08:23:19;;;;;;;0.40;0.10;;;;;;;22.49;58.71;100097.34;103469;1284;139030;-71
2022/06/13 08:25:48;;;;;;;0.40;0.10;;;;;;;22.54;58.11;100093.19;103573;1284;94897;-70
2022/06/13 08:28:15;;;;;;;0.40;0.10;;;;;;;22.64;58.05;100092.52;103674;1284;94749;-71
2022/06/13 08:30:54;;;;;;;0.40;0.10;;;;;;;22.65;57.67;100091.90;103476;1284;137994;-72
2022/06/13 08:33:21;;;;;;;0.40;0.10;;;;;;;22.51;57.20;100081.82;103601;1284;99599;-71
2022/06/13 08:35:48;;;;;;;0.40;0.10;;;;;;;22.45;57.55;100077.28;103529;1284;138480;-71
2022/06/13 08:38:16;;;;;;;0.40;0.00;;;;;;;22.42;58.03;100076.10;103553;1284;94342;-70
2022/06/13 08:40:52;;;;;;;0.40;0.00;;;;;;;22.41;58.66;100076.33;103608;1284;94377;-71
2022/06/13 08:43:54;;;;;;;0.40;0.10;;;;;;;22.38;58.11;100078.67;103610;1284;138664;-71
2022/06/13 08:46:42;;;;;;;0.40;0.10;;;;;;;22.48;59.56;100085.89;103203;1284;99384;-70
2022/06/13 08:49:08;;;;;;;0.40;0.10;;;;;;;22.46;58.31;100088.95;103573;1284;138602;-71
2022/06/13 08:51:48;;;;;;;0.40;0.10;;;;;;;22.40;58.88;100092.86;103642;1284;94857;-69
2022/06/13 08:54:26;;;;;;;0.40;0.10;;;;;;;22.43;59.79;100093.13;103483;1284;139659;-71
2022/06/13 08:56:55;;;;;;;0.40;0.10;;;;;;;22.42;58.62;100086.39;103619;1284;107393;-71
2022/06/13 08:59:34;;;;;;;0.40;0.10;;;;;;;22.37;58.53;100079.55;103602;1284;138101;-71
2022/06/13 09:02:22;;;;;;;0.40;0.10;;;;;;;22.29;58.86;100071.83;103524;1284;108645;-71
2022/06/13 09:04:52;;;;;;;0.40;0.10;;;;;;;22.26;59.24;100078.42;103701;1284;94729;-71
2022/06/13 09:07:29;;;;;;;0.40;0.10;;;;;;;22.35;58.84;100098.66;103464;1284;138466;-72
2022/06/13 09:10:12;;;;;;;0.40;0.10;;;;;;;22.44;58.16;100116.09;103511;1284;106882;-70
2022/06/13 09:12:52;;;;;;;0.40;0.00;;;;;;;22.43;58.46;100121.17;103521;1284;140381;-71
2022/06/13 09:15:21;;;;;;;0.40;0.10;;;;;;;22.45;58.56;100123.02;103554;1284;108863;-70
2022/06/13 09:17:59;;;;;;;0.40;0.10;;;;;;;22.48;58.48;100126.56;103458;1284;138890;-72
2022/06/13 09:20:33;;;;;;;0.40;0.10;;;;;;;22.46;58.16;100134.91;103492;1284;94473;-70
2022/06/13 09:23:51;;;;;;;0.40;0.10;;;;;;;22.41;58.30;100142.56;103482;1284;107110;-70
2022/06/13 09:26:25;;;;;;;0.40;0.10;;;;;;;22.34;58.64;100139.58;103189;1284;98845;-71
2022/06/13 09:29:03;;;;;;;0.40;0.10;;;;;;;22.33;59.41;100137.30;103601;1284;107286;-71
2022/06/13 09:31:40;;;;;;;0.40;0.10;;;;;;;22.35;59.19;100138.24;103975;1284;95400;-71
2022/06/13 09:34:14;;;;;;;0.40;0.10;;;;;;;22.40;59.51;100141.52;103518;1284;94736;-71
2022/06/13 09:36:56;;;;;;;0.40;0.10;;;;;;;22.37;59.52;100143.75;103383;1284;137977;-71
2022/06/13 09:39:23;;;;;;;0.40;0.10;;;;;;;22.33;59.47;100142.77;103534;1284;94323;-71
2022/06/13 09:42:27;;;;;;;0.40;0.10;;;;;;;22.33;59.63;100146.36;103271;1284;139226;-70
2022/06/13 09:44:57;;;;;;;0.40;0.10;;;;;;;22.32;60.02;100147.67;103327;1284;94724;-73
2022/06/13 09:48:15;;;;;;;0.40;0.10;;;;;;;22.32;59.72;100144.84;103456;1284;138097;-70
2022/06/13 09:50:55;;;;;;;0.40;0.10;;;;;;;22.29;60.20;100148.85;103584;1284;108613;-71
2022/06/13 09:53:33;;;;;;;0.40;0.10;;;;;;;22.16;60.66;100142.69;103502;1284;138729;-70
2022/06/13 09:56:09;;;;;;;0.40;0.10;;;;;;;22.06;61.14;100139.42;103546;1284;108653;-71
2022/06/13 09:59:10;;;;;;;0.40;0.10;;;;;;;22.03;61.96;100129.40;103620;1284;94457;-71
2022/06/13 10:02:21;;;;;;;0.40;0.10;;;;;;;22.01;62.38;100123.77;103690;1283;94728;-71
2022/06/13 10:05:20;;;;;;;0.40;0.10;;;;;;;22.00;61.97;100123.43;103512;1284;108442;-70
2022/06/13 10:08:04;;;;;;;0.40;0.10;;;;;;;22.00;62.51;100120.27;103550;1284;99835;-71
2022/06/13 10:10:46;;;;;;;0.40;0.10;;;;;;;22.01;62.23;100117.92;103739;1284;109014;-70
2022/06/13 10:13:17;;;;;;;0.40;0.10;;;;;;;21.92;61.67;100109.80;103462;1284;138828;-71
2022/06/13 10:16:12;;;;;;;0.40;0.10;;;;;;;21.89;61.71;100105.86;103671;1284;96535;-71
2022/06/13 10:18:59;;;;;;;0.40;0.10;;;;;;;21.87;61.25;100096.24;103506;1284;138395;-71
2022/06/13 10:21:32;;;;;;;0.40;0.10;;;;;;;21.74;59.72;100085.71;103651;1284;100138;-69
2022/06/13 10:24:37;;;;;;;0.40;0.10;;;;;;;21.71;60.53;100077.11;103492;1284;138043;-71
2022/06/13 10:27:30;;;;;;;0.40;0.10;;;;;;;21.70;60.29;100073.02;103727;1284;94767;-70
2022/06/13 10:30:26;;;;;;;0.40;0.10;;;;;;;21.59;59.63;100067.58;103483;1284;139027;-71
2022/06/13 10:33:08;;;;;;;0.40;0.10;;;;;;;21.65;60.17;100069.25;103356;1286;108407;-71
2022/06/13 10:35:48;;;;;;;0.40;0.10;;;;;;;21.85;60.33;100071.48;103433;1284;141163;-71
2022/06/13 10:38:34;;;;;;;0.40;0.10;;;;;;;21.97;60.06;100068.41;103625;1283;109278;-72
2022/06/13 10:41:00;;;;;;;0.40;0.10;;;;;;;21.94;58.78;100064.31;103536;1284;94670;-71
2022/06/13 10:43:30;;;;;;;0.40;0.10;;;;;;;21.88;58.89;100057.52;103584;1284;94362;-70
2022/06/13 10:45:57;;;;;;;0.40;0.10;;;;;;;21.89;58.67;100049.70;103581;1284;108672;-70
2022/06/13 10:48:30;;;;;;;0.40;0.10;;;;;;;21.94;59.16;100044.95;103454;1284;138118;-73
2022/06/13 10:50:58;;;;;;;0.40;0.10;;;;;;;21.92;58.58;100041.29;103498;1284;109086;-71
2022/06/13 10:54:08;;;;;;;0.40;0.10;;;;;;;21.94;59.03;100045.30;103441;1284;138667;-71
2022/06/13 10:56:41;;;;;;;0.40;0.10;;;;;;;22.15;58.77;100046.91;102880;1285;94366;-70
2022/06/13 10:59:21;;;;;;;0.40;0.10;;;;;;;22.21;58.49;100047.67;103456;1283;139742;-72
2022/06/13 11:02:00;;;;;;;0.40;0.10;;;;;;;22.27;58.04;100046.52;103671;1284;99230;-72
2022/06/13 11:04:29;;;;;;;0.40;0.10;;;;;;;22.33;58.20;100049.61;103529;1284;109029;-71
2022/06/13 11:07:03;;;;;;;0.40;0.10;;;;;;;22.41;58.06;100043.35;103476;1284;138903;-72
2022/06/13 11:09:38;;;;;;;0.40;0.10;;;;;;;22.46;57.46;100040.45;103558;1284;94917;-71
2022/06/13 11:12:36;;;;;;;0.40;0.10;;;;;;;22.55;57.50;100035.15;103560;1284;138054;-73
2022/06/13 11:24:20;;;;;;;0.40;0.10;;;;;;;22.44;57.43;100046.23;103374;1284;138986;-72
2022/06/13 11:29:37;;;;;;;0.40;0.10;;;;;;;22.28;57.44;100029.92;103496;1284;138414;-72
2022/06/13 11:32:17;;;;;;;0.40;0.10;;;;;;;22.25;57.20;100024.25;103361;1285;109230;-71
2022/06/13 11:34:44;;;;;;;0.40;0.10;;;;;;;22.25;57.73;100014.64;103490;1284;94363;-71
2022/06/13 11:37:23;;;;;;;0.40;0.10;;;;;;;22.31;57.54;100019.20;103434;1284;138884;-72
2022/06/13 11:39:51;;;;;;;0.40;0.10;;;;;;;22.37;58.18;100020.95;103506;1284;108346;-73
2022/06/13 11:42:27;;;;;;;0.40;0.10;;;;;;;22.43;58.74;100026.25;103478;1284;139292;-70
2022/06/13 11:45:16;;;;;;;0.40;0.10;;;;;;;22.48;59.11;100016.95;103592;1284;109068;-71
2022/06/13 11:47:48;;;;;;;0.40;0.10;;;;;;;22.45;58.62;100015.70;103386;1284;139547;-71
2022/06/13 11:50:22;;;;;;;0.40;0.10;;;;;;;22.38;59.09;100020.26;103700;1284;95224;-71
2022/06/13 11:55:58;;;;;;;0.40;0.10;;;;;;;22.11;59.58;100038.73;103570;1284;99668;-71
2022/06/13 11:58:32;;;;;;;0.40;0.10;;;;;;;21.94;59.52;100053.24;103875;1284;108828;-71
2022/06/13 12:01:12;;;;;;;0.40;0.10;;;;;;;21.85;60.30;100053.63;103514;1284;139038;-71
2022/06/13 12:03:46;;;;;;;0.40;0.10;;;;;;;21.74;60.97;100062.77;103660;1284;94670;-71
2022/06/13 12:06:18;;;;;;;0.40;0.10;;;;;;;21.60;61.90;100060.23;103442;1284;138251;-70
2022/06/13 12:08:50;;;;;;;0.40;0.10;;;;;;;21.47;62.58;100069.72;103797;1284;97778;-71
2022/06/13 12:11:17;;;;;;;0.40;0.10;;;;;;;21.28;63.30;100065.77;103457;1284;139221;-71
2022/06/13 12:13:45;;;;;;;0.40;0.10;;;;;;;21.16;63.65;100060.89;103775;1284;94499;-71
2022/06/13 12:16:37;;;;;;;0.40;0.10;;;;;;;21.11;63.86;100047.20;103727;1284;95239;-72